createdAt,value
2023-04-26T00:02:33.075Z,73.41
2023-04-26T00:06:10.240Z,73.49
2023-04-26T00:09:48.370Z,73.61
2023-04-26T00:13:25.600Z,73.67
2023-04-26T00:17:04.524Z,73.59
2023-04-26T00:20:40.412Z,73.81
2023-04-26T00:24:18.040Z,73.72
2023-04-26T00:27:56.032Z,73.88
2023-04-26T00:31:33.674Z,74.14
2023-04-26T00:35:11.673Z,73.62
2023-04-26T00:38:49.110Z,73.84
2023-04-26T00:42:27.805Z,73.84
2023-04-26T00:46:04.716Z,73.90
2023-04-26T00:49:42.232Z,74.13
2023-04-26T00:53:19.459Z,73.92
2023-04-26T00:56:57.752Z,73.84
2023-04-26T01:00:35.013Z,73.88
2023-04-26T01:04:13.505Z,73.88
2023-04-26T01:07:51.283Z,74.31
2023-04-26T01:11:28.401Z,74.33
2023-04-26T01:15:06.945Z,74.69
2023-04-26T01:18:43.755Z,74.68
2023-04-26T01:22:21.374Z,74.87
2023-04-26T01:25:59.049Z,74.70
2023-04-26T01:29:36.430Z,74.98
2023-04-26T01:33:16.021Z,74.71
2023-04-26T01:36:52.069Z,74.91
2023-04-26T01:40:29.919Z,74.97
2023-04-26T01:44:07.409Z,75.07
2023-04-26T01:47:45.008Z,75.15
2023-04-26T01:51:23.427Z,75.30
2023-04-26T01:55:00.314Z,75.63
2023-04-26T01:58:38.530Z,75.43
2023-04-26T02:02:18.850Z,75.50
2023-04-26T02:05:53.216Z,75.69
2023-04-26T02:09:31.014Z,75.85
2023-04-26T02:13:08.937Z,75.81
2023-04-26T02:16:46.936Z,76.12
2023-04-26T02:20:24.001Z,76.06
2023-04-26T02:24:01.785Z,76.05
2023-04-26T02:27:39.199Z,76.01
2023-04-26T02:31:17.183Z,75.64
2023-04-26T02:34:54.725Z,75.56
2023-04-26T02:38:36.804Z,75.35
2023-04-26T02:42:11.124Z,75.55
2023-04-26T02:45:47.900Z,75.73
2023-04-26T02:49:25.510Z,75.73
2023-04-26T02:53:03.972Z,75.83
2023-04-26T02:56:40.756Z,75.96
2023-04-26T03:00:18.599Z,75.91
2023-04-26T03:03:56.308Z,76.10
2023-04-26T03:07:34.322Z,76.21
2023-04-26T03:11:12.044Z,76.44
2023-04-26T03:14:49.481Z,76.24
2023-04-26T03:18:26.718Z,76.12
2023-04-26T03:22:04.677Z,76.49
2023-04-26T03:25:42.241Z,76.65
2023-04-26T03:29:20.138Z,76.67
2023-04-26T03:32:57.833Z,76.57
2023-04-26T03:36:35.242Z,76.65
2023-04-26T03:40:13.599Z,77.03
2023-04-26T03:43:50.669Z,77.04
2023-04-26T03:47:28.585Z,77.11
2023-04-26T03:54:43.885Z,77.21
2023-04-26T03:58:23.358Z,77.52
2023-04-26T04:01:59.351Z,77.31
2023-04-26T04:05:37.471Z,77.14
2023-04-26T04:09:14.544Z,77.31
2023-04-26T04:12:53.427Z,77.41
2023-04-26T04:16:30.058Z,77.26
2023-04-26T04:20:08.321Z,77.42
2023-04-26T04:23:45.307Z,77.31
2023-04-26T04:27:25.672Z,77.23
2023-04-26T04:31:01.797Z,77.14
2023-04-26T04:34:38.210Z,77.39
2023-04-26T04:38:15.922Z,77.67
2023-04-26T04:41:54.612Z,77.40
2023-04-26T04:45:31.759Z,77.72
2023-04-26T04:49:12.608Z,77.74
2023-04-26T04:52:46.900Z,77.53
2023-04-26T04:56:24.361Z,77.72
2023-04-26T05:00:10.217Z,77.60
2023-04-26T05:03:39.861Z,77.68
2023-04-26T05:07:18.585Z,77.46
2023-04-26T05:10:55.822Z,77.74
2023-04-26T05:14:32.443Z,77.69
2023-04-26T05:18:10.539Z,77.50
2023-04-26T05:21:47.853Z,77.33
2023-04-26T05:25:25.773Z,77.36
2023-04-26T05:29:03.200Z,77.50
2023-04-26T05:32:41.882Z,77.64
2023-04-26T05:36:19.741Z,77.73
2023-04-26T05:39:56.424Z,77.38
2023-04-26T05:43:34.669Z,77.23
2023-04-26T05:47:11.510Z,77.09
2023-04-26T05:50:52.446Z,77.23
2023-04-26T05:54:26.909Z,77.31
2023-04-26T05:58:05.225Z,77.04
2023-04-26T06:01:42.309Z,76.38
2023-04-26T06:05:21.109Z,75.26
2023-04-26T06:08:57.742Z,74.98
2023-04-26T06:12:35.738Z,75.02
2023-04-26T06:16:13.260Z,74.70
2023-04-26T06:19:51.057Z,74.66
2023-04-26T06:23:28.402Z,74.17
2023-04-26T06:27:06.491Z,74.16
2023-04-26T06:30:43.915Z,74.08
2023-04-26T06:34:21.683Z,73.92
2023-04-26T06:41:37.140Z,72.97
2023-04-26T06:45:14.556Z,72.45
2023-04-26T06:48:56.338Z,72.51
2023-04-26T06:52:30.232Z,72.96
2023-04-26T06:56:08.146Z,73.06
2023-04-26T06:59:45.322Z,73.08
2023-04-26T07:03:23.504Z,72.64
2023-04-26T07:07:00.492Z,71.46
2023-04-26T07:10:40.187Z,71.95
2023-04-26T07:14:16.006Z,75.97
2023-04-26T07:17:54.386Z,77.60
2023-04-26T07:21:31.500Z,79.39
2023-04-26T07:25:09.697Z,79.54
2023-04-26T07:28:47.184Z,79.68
2023-04-26T07:32:24.999Z,80.13
2023-04-26T07:36:02.287Z,80.81
2023-04-26T07:43:18.429Z,81.10
2023-04-26T07:46:56.226Z,81.01
2023-04-26T07:50:52.046Z,81.22
2023-04-26T07:57:48.008Z,80.59
2023-04-26T08:01:28.324Z,80.01
2023-04-26T08:05:03.397Z,79.23
2023-04-26T08:08:45.034Z,79.40
2023-04-26T08:12:18.690Z,79.51
2023-04-26T08:15:56.424Z,78.54
2023-04-26T08:19:34.516Z,77.81
2023-04-26T08:23:11.767Z,76.22
2023-04-26T08:26:51.298Z,75.10
2023-04-26T08:30:27.744Z,73.70
2023-04-26T08:34:04.697Z,73.75
2023-04-26T08:37:42.805Z,74.08
2023-04-26T08:41:24.733Z,74.58
2023-04-26T08:45:02.692Z,74.66
2023-04-26T08:48:37.642Z,75.55
2023-04-26T08:52:15.225Z,74.83
2023-04-26T08:55:51.400Z,73.28
2023-04-26T08:59:48.109Z,71.86
2023-04-26T09:03:06.327Z,72.01
2023-04-26T09:06:44.688Z,72.63
2023-04-26T09:10:22.508Z,73.43
2023-04-26T09:13:59.379Z,74.69
2023-04-26T09:17:39.299Z,75.88
2023-04-26T09:21:17.981Z,76.68
2023-04-26T09:24:55.149Z,77.60
2023-04-26T09:28:30.160Z,78.88
2023-04-26T09:32:09.289Z,79.52
2023-04-26T09:35:45.562Z,80.02
2023-04-26T09:39:41.281Z,80.85
2023-04-26T09:43:08.851Z,81.72
2023-04-26T09:46:38.201Z,82.49
2023-04-26T09:50:29.534Z,82.54
2023-04-26T09:53:55.069Z,82.56
2023-04-26T09:57:32.144Z,83.04
2023-04-26T10:01:10.554Z,83.34
2023-04-26T10:08:24.764Z,83.95
2023-04-26T10:12:03.553Z,83.97
2023-04-26T10:15:41.156Z,83.65
2023-04-26T10:19:18.233Z,83.79
2023-04-26T10:23:01.976Z,83.97
2023-04-26T10:26:54.991Z,83.39
2023-04-26T10:30:14.876Z,82.57
2023-04-26T10:34:21.014Z,81.80
2023-04-26T10:37:26.035Z,81.93
2023-04-26T10:41:32.549Z,82.25
2023-04-26T10:44:42.528Z,82.25
2023-04-26T10:48:33.057Z,81.55
2023-04-26T10:52:16.738Z,81.09
2023-04-26T10:55:42.062Z,80.61
2023-04-26T11:02:53.359Z,81.04
2023-04-26T11:06:47.501Z,80.64
2023-04-26T11:10:10.745Z,80.32
2023-04-26T11:13:44.696Z,79.25
2023-04-26T11:17:21.067Z,78.03
2023-04-26T11:21:02.251Z,76.70
2023-04-26T11:24:39.401Z,76.08
2023-04-26T11:28:12.997Z,74.53
2023-04-26T11:31:56.345Z,73.80
2023-04-26T11:35:29.985Z,73.32
2023-04-26T11:39:07.674Z,73.37
2023-04-26T11:42:45.077Z,72.87
2023-04-26T11:46:22.477Z,72.27
2023-04-26T11:49:59.209Z,70.41
2023-04-26T11:53:41.013Z,68.97
2023-04-26T11:57:18.775Z,69.32
2023-04-26T12:01:04.617Z,68.80
2023-04-26T12:04:31.320Z,68.82
2023-04-26T12:08:10.826Z,68.61
2023-04-26T12:12:06.565Z,68.28
2023-04-26T12:15:24.248Z,68.35
2023-04-26T12:19:00.577Z,67.89
2023-04-26T12:22:38.812Z,67.31
2023-04-26T12:26:16.023Z,67.99
2023-04-26T12:29:53.695Z,68.74
2023-04-26T12:33:31.289Z,68.88
2023-04-26T12:37:09.432Z,68.77
2023-04-26T12:40:46.948Z,66.98
2023-04-26T12:44:24.568Z,66.77
2023-04-26T12:48:02.271Z,67.24
2023-04-26T12:51:39.569Z,66.76
2023-04-26T12:55:18.215Z,67.18
2023-04-26T12:58:54.977Z,66.98
2023-04-26T13:02:34.641Z,67.56
2023-04-26T13:06:10.322Z,67.63
2023-04-26T13:09:48.032Z,66.48
2023-04-26T13:13:32.416Z,66.82
2023-04-26T13:17:05.076Z,66.42
2023-04-26T13:20:41.752Z,65.53
2023-04-26T13:24:19.027Z,64.95
2023-04-26T13:27:56.796Z,64.81
2023-04-26T13:31:34.572Z,64.92
2023-04-26T13:35:12.628Z,65.08
2023-04-26T13:38:49.494Z,64.29
2023-04-26T13:42:27.667Z,64.84
2023-04-26T13:46:04.948Z,64.37
2023-04-26T13:49:42.340Z,64.01
2023-04-26T13:53:20.100Z,64.12
2023-04-26T13:56:58.494Z,61.86
2023-04-26T14:00:35.512Z,61.79
2023-04-26T14:04:13.245Z,62.15
2023-04-26T14:07:51.837Z,63.23
2023-04-26T14:11:28.977Z,62.40
2023-04-26T14:15:06.853Z,60.75
2023-04-26T14:18:45.560Z,61.66
2023-04-26T14:22:21.368Z,61.71
2023-04-26T14:25:59.555Z,61.80
2023-04-26T14:29:36.948Z,61.41
2023-04-26T14:33:14.662Z,61.25
2023-04-26T14:36:52.051Z,60.86
2023-04-26T14:40:30.543Z,60.53
2023-04-26T14:44:08.046Z,60.92
2023-04-26T14:47:45.127Z,60.63
2023-04-26T14:51:22.803Z,61.75
2023-04-26T14:55:00.499Z,61.53
2023-04-26T14:58:38.592Z,62.47
2023-04-26T15:02:34.933Z,62.58
2023-04-26T15:05:53.499Z,62.85
2023-04-26T15:09:31.088Z,62.99
2023-04-26T15:13:09.031Z,62.90
2023-04-26T15:16:46.706Z,63.26
2023-04-26T15:20:24.721Z,62.76
2023-04-26T15:24:01.845Z,63.41
2023-04-26T15:27:39.528Z,63.77
2023-04-26T15:34:54.747Z,62.87
2023-04-26T15:38:34.861Z,63.05
2023-04-26T15:42:10.368Z,62.50
2023-04-26T15:45:50.089Z,62.79
2023-04-26T15:49:25.765Z,62.75
2023-04-26T15:53:03.124Z,63.68
2023-04-26T15:56:41.266Z,63.29
2023-04-26T16:00:19.032Z,64.15
2023-04-26T16:03:56.261Z,62.98
2023-04-26T16:11:11.853Z,62.43
2023-04-26T16:14:51.382Z,63.03
2023-04-26T16:18:27.560Z,62.68
2023-04-26T16:22:04.546Z,63.41
2023-04-26T16:25:43.580Z,62.97
2023-04-26T16:29:20.155Z,63.06
2023-04-26T16:32:57.668Z,63.75
2023-04-26T16:36:35.658Z,62.59
2023-04-26T16:40:13.726Z,63.34
2023-04-26T16:43:52.857Z,64.10
2023-04-26T16:47:30.809Z,63.37
2023-04-26T16:51:07.858Z,63.82
2023-04-26T16:54:43.751Z,64.71
2023-04-26T16:58:21.702Z,64.09
2023-04-26T17:01:59.733Z,63.82
2023-04-26T17:05:47.970Z,64.69
2023-04-26T17:09:14.145Z,64.16
2023-04-26T17:12:52.393Z,64.21
2023-04-26T17:20:10.748Z,64.40
2023-04-26T17:23:45.347Z,64.43
2023-04-26T17:27:25.449Z,64.89
2023-04-26T17:31:02.482Z,65.05
2023-04-26T17:34:56.946Z,65.04
2023-04-26T17:38:15.981Z,65.38
2023-04-26T17:41:53.391Z,65.66
2023-04-26T17:45:31.468Z,65.71
2023-04-26T17:49:08.812Z,66.62
2023-04-26T17:52:46.701Z,66.28
2023-04-26T17:56:24.317Z,66.47
2023-04-26T18:00:02.123Z,67.53
2023-04-26T18:03:39.786Z,67.56
2023-04-26T18:07:17.428Z,67.12
2023-04-26T18:10:55.825Z,66.73
2023-04-26T18:14:32.396Z,67.14
2023-04-26T18:18:10.099Z,66.95
2023-04-26T18:21:51.352Z,66.93
2023-04-26T18:25:25.727Z,67.51
2023-04-26T18:29:03.109Z,68.24
2023-04-26T18:32:41.573Z,67.83
2023-04-26T18:36:18.947Z,67.85
2023-04-26T18:39:55.957Z,69.64
2023-04-26T18:43:33.852Z,69.50
2023-04-26T18:47:13.569Z,69.29
2023-04-26T18:50:51.479Z,68.90
2023-04-26T18:54:27.082Z,68.80
2023-04-26T18:58:04.329Z,68.47
2023-04-26T19:01:42.073Z,68.68
2023-04-26T19:05:20.435Z,69.26
2023-04-26T19:08:57.415Z,70.30
2023-04-26T19:12:34.962Z,70.08
2023-04-26T19:16:13.051Z,70.07
2023-04-26T19:19:55.379Z,70.31
2023-04-26T19:23:27.919Z,71.22
2023-04-26T19:27:05.862Z,71.14
2023-04-26T19:30:44.011Z,71.57
2023-04-26T19:34:21.830Z,72.01
2023-04-26T19:37:58.973Z,72.27
2023-04-26T19:41:36.618Z,72.08
2023-04-26T19:45:14.169Z,71.94
2023-04-26T19:48:52.041Z,72.41
2023-04-26T19:52:29.836Z,73.24
2023-04-26T19:56:07.363Z,73.14
2023-04-26T19:59:45.326Z,73.08
2023-04-26T20:03:22.833Z,73.60
2023-04-26T20:07:00.762Z,73.53
2023-04-26T20:10:37.958Z,73.60
2023-04-26T20:14:16.378Z,73.41
2023-04-26T20:21:31.154Z,73.49
2023-04-26T20:25:09.276Z,73.69
2023-04-26T20:28:47.570Z,73.59
2023-04-26T20:32:24.397Z,73.78
2023-04-26T20:36:01.612Z,73.63
2023-04-26T20:39:39.376Z,74.25
2023-04-26T20:43:17.778Z,74.01
2023-04-26T20:46:54.655Z,73.95
2023-04-26T20:50:32.930Z,74.08
2023-04-26T20:57:47.571Z,73.81
2023-04-26T21:01:25.560Z,73.60
2023-04-26T21:05:04.810Z,73.47
2023-04-26T21:08:42.502Z,73.62
2023-04-26T21:12:18.331Z,73.46
2023-04-26T21:15:56.230Z,73.74
2023-04-26T21:19:33.656Z,74.21
2023-04-26T21:23:11.164Z,74.34
2023-04-26T21:26:48.928Z,74.19
2023-04-26T21:30:26.869Z,74.61
2023-04-26T21:34:04.209Z,75.54
2023-04-26T21:37:42.281Z,75.87
2023-04-26T21:41:19.952Z,75.83
2023-04-26T21:44:57.477Z,76.07
2023-04-26T21:48:35.294Z,76.16
2023-04-26T21:52:14.680Z,75.89
2023-04-26T21:55:54.207Z,76.02
2023-04-26T21:59:28.118Z,75.97
2023-04-26T22:03:06.190Z,76.16
2023-04-26T22:06:43.736Z,76.59
2023-04-26T22:10:21.696Z,76.90
2023-04-26T22:13:58.934Z,76.98
2023-04-26T22:17:36.557Z,76.94
2023-04-26T22:21:14.559Z,77.25
2023-04-26T22:24:52.019Z,77.54
2023-04-26T22:28:29.862Z,77.87
2023-04-26T22:32:07.207Z,77.61
2023-04-26T22:36:04.994Z,77.83
2023-04-26T22:39:23.274Z,78.58
2023-04-26T22:43:00.360Z,78.47
2023-04-26T22:46:38.285Z,78.47
2023-04-26T22:50:15.593Z,78.90
2023-04-26T22:53:53.374Z,79.15
2023-04-26T22:57:31.388Z,78.89
2023-04-26T23:01:09.041Z,78.74
2023-04-26T23:04:46.746Z,79.01
2023-04-26T23:08:23.794Z,79.27
2023-04-26T23:12:03.684Z,79.44
2023-04-26T23:15:39.465Z,79.67
2023-04-26T23:19:17.478Z,80.06
2023-04-26T23:22:54.768Z,80.42
2023-04-26T23:26:32.754Z,80.56
2023-04-26T23:30:10.673Z,80.25
2023-04-26T23:33:47.510Z,80.13
2023-04-26T23:37:25.204Z,79.86
2023-04-26T23:41:03.255Z,80.04
2023-04-26T23:44:41.033Z,80.30
2023-04-26T23:48:18.232Z,80.25
2023-04-26T23:51:56.046Z,80.27
2023-04-26T23:55:33.729Z,80.35
2023-04-26T23:59:11.504Z,80.66
